Time;durP1;ratioP1;P1;durP2;ratioP2;P2;SDS_P1;SDS_P2;PMS_P1;PMS_P2;Temp;Humidity;BMP_temperature;BMP_pressure;BME280_temperature;BME280_humidity;BME280_pressure;Samples;Min_cycle;Max_cycle;Signal;HPM_P1;HPM_P2
2021/07/13 00:00:32;;;;;;;7.22;4.90;;;;;;;;;;3597648;39;20418;-49
2021/07/13 00:03:01;;;;;;;7.07;4.63;;;;;;;;;;3595726;40;20082;-50
2021/07/13 00:05:29;;;;;;;6.18;4.30;;;;;;;;;;3598016;40;20100;-55
2021/07/13 00:07:57;;;;;;;5.22;4.03;;;;;;;;;;3597636;40;20079;-51
2021/07/13 00:10:27;;;;;;;7.43;4.40;;;;;;;;;;3597379;39;20052;-51
2021/07/13 00:12:55;;;;;;;63.38;34.85;;;;;;;;;;3597766;40;20047;-53
2021/07/13 00:15:30;;;;;;;42.47;24.25;;;;;;;;;;3597783;40;20043;-52
2021/07/13 00:17:59;;;;;;;24.75;16.67;;;;;;;;;;3597757;39;20044;-44
2021/07/13 00:20:27;;;;;;;13.07;7.38;;;;;;;;;;3597591;40;20098;-51
2021/07/13 00:22:55;;;;;;;8.52;5.90;;;;;;;;;;3597592;39;20056;-51
2021/07/13 00:25:24;;;;;;;7.68;4.90;;;;;;;;;;3597632;40;20044;-46
2021/07/13 00:27:52;;;;;;;7.90;4.75;;;;;;;;;;3597406;39;20556;-51
2021/07/13 00:30:20;;;;;;;6.78;4.53;;;;;;;;;;3597531;39;20148;-53
2021/07/13 00:32:48;;;;;;;9.25;4.65;;;;;;;;;;3596442;40;20422;-49
2021/07/13 00:35:16;;;;;;;7.43;5.78;;;;;;;;;;3597511;40;20052;-49
2021/07/13 00:37:44;;;;;;;8.68;5.43;;;;;;;;;;3597502;39;20048;-51
2021/07/13 00:40:13;;;;;;;9.98;6.13;;;;;;;;;;3597541;39;20051;-51
2021/07/13 00:42:45;;;;;;;8.30;5.25;;;;;;;;;;3597436;39;20506;-49
2021/07/13 00:45:13;;;;;;;6.78;5.40;;;;;;;;;;3597493;39;20056;-47
2021/07/13 00:47:41;;;;;;;7.07;4.10;;;;;;;;;;3597028;39;20047;-52
2021/07/13 00:50:09;;;;;;;6.15;5.55;;;;;;;;;;3596924;39;20087;-52
2021/07/13 00:52:36;;;;;;;9.93;5.43;;;;;;;;;;3597301;39;20351;-54
2021/07/13 00:55:04;;;;;;;8.43;4.78;;;;;;;;;;3597354;39;20052;-53
2021/07/13 00:57:32;;;;;;;8.15;4.68;;;;;;;;;;3597414;39;20040;-51
2021/07/13 00:59:59;;;;;;;14.60;9.50;;;;;;;;;;3597428;40;20040;-49
2021/07/13 01:02:26;;;;;;;7.03;4.93;;;;;;;;;;3597501;40;20047;-49
2021/07/13 01:04:58;;;;;;;7.20;5.40;;;;;;;;;;3597445;39;20448;-50
2021/07/13 01:07:55;;;;;;;6.50;5.10;;;;;;;;;;3596929;39;20421;-45
2021/07/13 01:10:45;;;;;;;6.68;5.10;;;;;;;;;;3597061;40;20048;-47
2021/07/13 01:13:27;;;;;;;8.00;5.15;;;;;;;;;;3596821;39;20052;-49
2021/07/13 01:16:03;;;;;;;6.00;5.03;;;;;;;;;;3597340;40;20047;-49
2021/07/13 01:18:36;;;;;;;7.35;4.72;;;;;;;;;;3597070;39;20048;-53
2021/07/13 01:21:16;;;;;;;5.32;4.63;;;;;;;;;;3597121;39;20056;-49
2021/07/13 01:23:52;;;;;;;6.75;4.97;;;;;;;;;;3597359;39;20044;-55
2021/07/13 01:26:42;;;;;;;6.78;5.32;;;;;;;;;;3597347;39;20056;-49
2021/07/13 01:29:12;;;;;;;6.32;5.55;;;;;;;;;;3597055;39;20048;-50
2021/07/13 01:31:42;;;;;;;7.90;4.60;;;;;;;;;;3596791;39;20036;-52
2021/07/13 01:34:17;;;;;;;7.38;4.85;;;;;;;;;;3597036;39;20510;-50
2021/07/13 01:36:53;;;;;;;5.40;4.38;;;;;;;;;;3597116;39;20055;-45
2021/07/13 01:39:20;;;;;;;5.00;4.50;;;;;;;;;;3597229;39;20056;-52
2021/07/13 01:41:50;;;;;;;9.55;4.38;;;;;;;;;;3596929;40;20342;-52
2021/07/13 01:44:20;;;;;;;6.35;4.80;;;;;;;;;;3596854;39;20044;-47
2021/07/13 01:46:51;;;;;;;5.65;5.05;;;;;;;;;;3597454;39;20033;-48
2021/07/13 01:49:22;;;;;;;6.57;5.28;;;;;;;;;;3597167;39;20060;-52
2021/07/13 01:51:52;;;;;;;4.97;4.20;;;;;;;;;;3596963;39;20088;-52
2021/07/13 01:54:24;;;;;;;7.72;4.70;;;;;;;;;;3597115;40;20051;-48
2021/07/13 01:56:57;;;;;;;5.95;5.32;;;;;;;;;;3596998;39;20083;-49
2021/07/13 01:59:26;;;;;;;4.95;4.45;;;;;;;;;;3596860;39;20412;-51
2021/07/13 02:01:57;;;;;;;5.85;4.85;;;;;;;;;;3596924;40;20122;-45
2021/07/13 02:04:33;;;;;;;6.50;4.97;;;;;;;;;;3596931;39;20129;-50
2021/07/13 02:07:03;;;;;;;5.38;4.28;;;;;;;;;;3597014;40;20043;-47
2021/07/13 02:09:34;;;;;;;4.97;4.25;;;;;;;;;;3596957;39;20068;-44
2021/07/13 02:12:02;;;;;;;4.30;3.83;;;;;;;;;;3596930;39;20047;-53
2021/07/13 02:14:30;;;;;;;7.50;4.45;;;;;;;;;;3597072;40;20405;-47
2021/07/13 02:17:00;;;;;;;7.45;4.35;;;;;;;;;;3597086;40;20052;-51
2021/07/13 02:19:28;;;;;;;5.28;4.47;;;;;;;;;;3596476;39;20048;-47
2021/07/13 02:21:56;;;;;;;7.63;4.85;;;;;;;;;;3596779;39;20099;-53
2021/07/13 02:24:26;;;;;;;6.18;4.32;;;;;;;;;;3596954;39;20060;-51
2021/07/13 02:27:00;;;;;;;6.40;4.28;;;;;;;;;;3596881;39;20480;-46
2021/07/13 02:29:52;;;;;;;4.57;3.92;;;;;;;;;;3596795;39;20066;-51
2021/07/13 02:32:43;;;;;;;5.72;4.25;;;;;;;;;;3596796;39;20047;-49
2021/07/13 02:35:12;;;;;;;5.28;4.50;;;;;;;;;;3596732;39;20058;-51
2021/07/13 02:37:44;;;;;;;5.05;4.50;;;;;;;;;;3596883;40;20079;-49
2021/07/13 02:40:13;;;;;;;4.57;4.13;;;;;;;;;;3596423;40;20044;-48
2021/07/13 02:42:48;;;;;;;5.38;4.47;;;;;;;;;;3596707;39;20044;-56
2021/07/13 02:45:16;;;;;;;6.85;4.15;;;;;;;;;;3596772;40;20061;-54
2021/07/13 02:47:46;;;;;;;4.88;3.92;;;;;;;;;;3595435;40;20055;-50
2021/07/13 02:50:16;;;;;;;8.05;4.45;;;;;;;;;;3597125;39;20048;-52
2021/07/13 02:52:45;;;;;;;5.55;4.05;;;;;;;;;;3596799;39;20080;-51
2021/07/13 02:55:18;;;;;;;8.30;3.72;;;;;;;;;;3596257;39;20072;-52
2021/07/13 02:57:46;;;;;;;4.30;3.60;;;;;;;;;;3595661;40;20081;-52
2021/07/13 03:00:15;;;;;;;4.72;3.60;;;;;;;;;;3596708;40;20040;-51
2021/07/13 03:02:46;;;;;;;4.70;4.10;;;;;;;;;;3596360;39;20133;-50
2021/07/13 03:05:15;;;;;;;5.25;4.32;;;;;;;;;;3596552;39;20036;-54
2021/07/13 03:07:44;;;;;;;4.43;4.03;;;;;;;;;;3597114;39;20067;-56
2021/07/13 03:10:11;;;;;;;7.43;4.80;;;;;;;;;;3596234;40;20052;-48
2021/07/13 03:12:39;;;;;;;4.35;3.65;;;;;;;;;;3596517;40;20078;-52
2021/07/13 03:15:07;;;;;;;5.28;4.00;;;;;;;;;;3596692;40;20345;-50
2021/07/13 03:17:34;;;;;;;5.85;3.83;;;;;;;;;;3596465;40;20043;-51
2021/07/13 03:20:03;;;;;;;5.45;3.67;;;;;;;;;;3596257;39;20063;-49
2021/07/13 03:22:42;;;;;;;5.35;3.75;;;;;;;;;;3596517;40;20076;-50
2021/07/13 03:25:15;;;;;;;5.97;4.35;;;;;;;;;;3595576;39;20044;-50
2021/07/13 03:27:44;;;;;;;4.65;3.83;;;;;;;;;;3594965;40;20032;-51
2021/07/13 03:30:12;;;;;;;8.30;3.85;;;;;;;;;;3596453;40;20048;-52
2021/07/13 03:32:41;;;;;;;4.07;3.60;;;;;;;;;;3595937;39;20079;-52
2021/07/13 03:35:09;;;;;;;5.45;3.72;;;;;;;;;;3596428;39;20072;-52
2021/07/13 03:37:38;;;;;;;5.25;3.35;;;;;;;;;;3596356;40;20093;-51
2021/07/13 03:40:07;;;;;;;5.05;3.40;;;;;;;;;;3596129;40;20076;-54
2021/07/13 03:42:35;;;;;;;4.15;2.90;;;;;;;;;;3596215;40;20053;-49
2021/07/13 03:45:04;;;;;;;3.42;2.53;;;;;;;;;;3596410;40;20049;-56
2021/07/13 03:47:31;;;;;;;4.05;2.10;;;;;;;;;;3596419;39;20413;-51
2021/07/13 03:49:59;;;;;;;2.90;2.38;;;;;;;;;;3595987;40;20081;-49
2021/07/13 03:52:26;;;;;;;3.63;2.70;;;;;;;;;;3596093;40;20048;-50
2021/07/13 03:54:55;;;;;;;3.72;2.47;;;;;;;;;;3596399;39;20055;-50
2021/07/13 03:57:22;;;;;;;3.65;2.13;;;;;;;;;;3596073;40;20111;-51
2021/07/13 03:59:49;;;;;;;4.18;2.33;;;;;;;;;;3595844;40;20056;-48
2021/07/13 04:02:17;;;;;;;3.25;2.38;;;;;;;;;;3596208;40;20394;-50
2021/07/13 04:04:44;;;;;;;2.60;2.05;;;;;;;;;;3596224;39;20051;-50
2021/07/13 04:07:11;;;;;;;3.13;1.90;;;;;;;;;;3596064;40;20051;-46
2021/07/13 04:09:40;;;;;;;4.75;2.17;;;;;;;;;;3596348;39;20519;-50
2021/07/13 04:12:07;;;;;;;2.45;1.80;;;;;;;;;;3595805;40;20056;-51
2021/07/13 04:14:35;;;;;;;8.65;5.20;;;;;;;;;;3596336;39;20053;-51
2021/07/13 04:17:04;;;;;;;101.20;45.10;;;;;;;;;;3596014;40;20044;-51
2021/07/13 04:19:31;;;;;;;38.53;18.88;;;;;;;;;;3596099;39;20080;-50
2021/07/13 04:21:58;;;;;;;6.72;3.78;;;;;;;;;;3596008;39;20052;-52
2021/07/13 04:24:26;;;;;;;5.82;2.58;;;;;;;;;;3596940;39;20066;-48
2021/07/13 04:26:53;;;;;;;4.05;1.98;;;;;;;;;;3597419;39;20037;-52
2021/07/13 04:29:20;;;;;;;2.30;1.50;;;;;;;;;;3597544;39;20052;-52
2021/07/13 04:31:47;;;;;;;1.90;1.40;;;;;;;;;;3597573;39;20044;-51
2021/07/13 04:34:16;;;;;;;1.90;1.30;;;;;;;;;;3597531;39;20054;-48
2021/07/13 04:36:43;;;;;;;3.83;1.50;;;;;;;;;;3596353;40;20056;-51
2021/07/13 04:39:10;;;;;;;2.08;1.48;;;;;;;;;;3597515;39;20056;-48
2021/07/13 04:41:38;;;;;;;1.60;1.17;;;;;;;;;;3597615;39;20099;-52
2021/07/13 04:44:05;;;;;;;3.15;1.50;;;;;;;;;;3596030;40;20044;-53
2021/07/13 04:46:33;;;;;;;1.58;1.30;;;;;;;;;;3597730;39;20445;-51
2021/07/13 04:49:00;;;;;;;1.75;1.20;;;;;;;;;;3597734;39;20063;-52
2021/07/13 04:51:27;;;;;;;3.47;1.33;;;;;;;;;;3597446;39;20383;-52
2021/07/13 04:53:55;;;;;;;2.53;1.23;;;;;;;;;;3597351;39;20055;-51
2021/07/13 04:56:22;;;;;;;1.65;1.08;;;;;;;;;;3597563;40;20040;-53
2021/07/13 04:58:49;;;;;;;2.05;1.40;;;;;;;;;;3597650;39;20084;-50
2021/07/13 05:01:17;;;;;;;3.65;1.23;;;;;;;;;;3597228;39;20051;-56
2021/07/13 05:03:44;;;;;;;1.92;1.10;;;;;;;;;;3597164;40;20047;-47
2021/07/13 05:06:14;;;;;;;2.45;1.10;;;;;;;;;;3597464;39;20048;-52
2021/07/13 05:08:42;;;;;;;1.48;1.08;;;;;;;;;;3597599;40;20048;-52
2021/07/13 05:11:10;;;;;;;1.20;0.95;;;;;;;;;;3596978;40;20043;-47
2021/07/13 05:13:38;;;;;;;2.58;1.13;;;;;;;;;;3596648;39;20044;-51
2021/07/13 05:16:05;;;;;;;0.98;0.80;;;;;;;;;;3597435;39;20056;-52
2021/07/13 05:18:34;;;;;;;2.17;0.95;;;;;;;;;;3597241;39;20104;-50
2021/07/13 05:21:04;;;;;;;1.75;0.82;;;;;;;;;;3597106;40;20056;-52
2021/07/13 05:23:33;;;;;;;3.88;1.00;;;;;;;;;;3597732;39;20140;-54
2021/07/13 05:26:00;;;;;;;1.65;1.10;;;;;;;;;;3596444;40;20330;-54
2021/07/13 05:28:28;;;;;;;1.65;0.80;;;;;;;;;;3597072;39;20328;-50
2021/07/13 05:30:55;;;;;;;1.10;0.75;;;;;;;;;;3597083;39;20409;-57
2021/07/13 05:33:23;;;;;;;1.35;0.80;;;;;;;;;;3597051;39;20092;-50
2021/07/13 05:35:52;;;;;;;1.00;0.70;;;;;;;;;;3597066;39;20063;-52
2021/07/13 05:38:19;;;;;;;1.77;0.88;;;;;;;;;;3597196;40;20086;-49
2021/07/13 05:40:47;;;;;;;1.15;0.88;;;;;;;;;;3597301;40;20426;-53
2021/07/13 05:43:15;;;;;;;2.35;0.90;;;;;;;;;;3597086;40;20048;-53
2021/07/13 05:45:45;;;;;;;1.05;0.70;;;;;;;;;;3596899;39;20047;-48
2021/07/13 05:48:12;;;;;;;1.35;0.70;;;;;;;;;;3595824;40;20040;-54
2021/07/13 05:50:40;;;;;;;2.40;0.70;;;;;;;;;;3597243;39;20986;-51
2021/07/13 05:53:07;;;;;;;1.38;0.70;;;;;;;;;;3597135;39;20048;-52
2021/07/13 05:55:34;;;;;;;1.60;0.70;;;;;;;;;;3596568;40;20121;-46
2021/07/13 05:58:02;;;;;;;2.75;1.17;;;;;;;;;;3597244;39;20072;-51
2021/07/13 06:00:29;;;;;;;5.72;0.93;;;;;;;;;;3597132;39;20047;-50
2021/07/13 06:02:56;;;;;;;0.93;0.52;;;;;;;;;;3597052;40;20052;-53
2021/07/13 06:05:24;;;;;;;2.20;0.70;;;;;;;;;;3597033;39;20319;-52
2021/07/13 06:07:52;;;;;;;1.02;0.80;;;;;;;;;;3597123;40;20048;-52
2021/07/13 06:10:20;;;;;;;1.27;0.55;;;;;;;;;;3597232;40;20144;-53
2021/07/13 06:12:47;;;;;;;0.60;0.55;;;;;;;;;;3596960;39;20494;-51
2021/07/13 06:15:15;;;;;;;1.13;0.75;;;;;;;;;;3596977;39;20052;-51
2021/07/13 06:17:43;;;;;;;1.73;0.80;;;;;;;;;;3597105;39;20055;-52
2021/07/13 06:20:11;;;;;;;1.73;0.75;;;;;;;;;;3597305;39;20091;-52
2021/07/13 06:22:40;;;;;;;0.90;0.60;;;;;;;;;;3596467;40;20051;-52
2021/07/13 06:25:10;;;;;;;0.80;0.60;;;;;;;;;;3596685;40;20052;-52
2021/07/13 06:27:39;;;;;;;1.70;0.68;;;;;;;;;;3596658;39;20148;-52
2021/07/13 06:30:08;;;;;;;32.55;19.40;;;;;;;;;;3596769;40;20064;-51
2021/07/13 06:32:35;;;;;;;4.63;1.92;;;;;;;;;;3596857;40;20044;-46
2021/07/13 06:35:03;;;;;;;1.38;0.50;;;;;;;;;;3596851;39;20056;-52
2021/07/13 06:37:31;;;;;;;1.27;0.57;;;;;;;;;;3597017;39;20036;-49
2021/07/13 06:39:58;;;;;;;0.93;0.60;;;;;;;;;;3596518;40;20339;-52
2021/07/13 06:42:25;;;;;;;0.82;0.40;;;;;;;;;;3596624;39;20085;-53
2021/07/13 06:44:52;;;;;;;1.50;0.50;;;;;;;;;;3597074;39;20044;-52
2021/07/13 06:47:22;;;;;;;34.03;21.83;;;;;;;;;;3595937;39;20036;-48
2021/07/13 06:49:50;;;;;;;8.25;4.50;;;;;;;;;;3596670;40;20048;-52
2021/07/13 06:52:17;;;;;;;3.17;0.70;;;;;;;;;;3596866;40;20111;-52
2021/07/13 06:54:44;;;;;;;1.88;0.68;;;;;;;;;;3596771;40;20059;-49
2021/07/13 06:57:12;;;;;;;2.38;0.70;;;;;;;;;;3596391;40;20071;-53
2021/07/13 06:59:39;;;;;;;1.67;0.57;;;;;;;;;;3595540;40;20072;-51
2021/07/13 07:02:07;;;;;;;0.60;0.50;;;;;;;;;;3596911;39;20765;-52
2021/07/13 07:04:34;;;;;;;1.00;0.50;;;;;;;;;;3596459;39;20052;-51
2021/07/13 07:07:02;;;;;;;10.98;6.80;;;;;;;;;;3596261;39;20410;-54
2021/07/13 07:09:29;;;;;;;14.57;7.72;;;;;;;;;;3596625;39;20044;-52
2021/07/13 07:11:57;;;;;;;2.65;1.67;;;;;;;;;;3597087;39;20057;-52
2021/07/13 07:14:24;;;;;;;1.38;0.80;;;;;;;;;;3596712;39;20050;-52
2021/07/13 07:16:51;;;;;;;1.02;0.50;;;;;;;;;;3596330;39;20043;-54
2021/07/13 07:19:19;;;;;;;1.30;0.47;;;;;;;;;;3595453;40;20059;-52
2021/07/13 07:21:46;;;;;;;2.65;0.40;;;;;;;;;;3595451;40;20055;-53
2021/07/13 07:24:16;;;;;;;3.33;0.60;;;;;;;;;;3596122;39;20088;-52
2021/07/13 07:26:44;;;;;;;3.97;0.47;;;;;;;;;;3596512;39;20045;-51
2021/07/13 07:29:11;;;;;;;1.23;0.40;;;;;;;;;;3596153;40;20064;-53
2021/07/13 07:31:39;;;;;;;0.85;0.52;;;;;;;;;;3596599;39;20078;-50
2021/07/13 07:34:07;;;;;;;1.52;0.50;;;;;;;;;;3596215;39;20047;-50
2021/07/13 07:36:34;;;;;;;0.57;0.40;;;;;;;;;;3596455;39;20029;-49
2021/07/13 07:39:03;;;;;;;1.10;0.45;;;;;;;;;;3595508;40;20041;-57
2021/07/13 07:41:30;;;;;;;1.13;0.50;;;;;;;;;;3596199;39;20055;-47
2021/07/13 07:43:59;;;;;;;1.52;0.40;;;;;;;;;;3596192;40;20152;-54
2021/07/13 07:46:26;;;;;;;1.10;0.40;;;;;;;;;;3596114;39;20036;-52
2021/07/13 07:48:58;;;;;;;0.82;0.50;;;;;;;;;;3595994;40;20048;-52
2021/07/13 07:51:26;;;;;;;0.85;0.40;;;;;;;;;;3595999;40;20338;-51
2021/07/13 07:53:54;;;;;;;4.05;0.52;;;;;;;;;;3596119;40;20056;-52
2021/07/13 07:56:22;;;;;;;1.27;0.60;;;;;;;;;;3596123;40;20085;-52
2021/07/13 07:58:50;;;;;;;9.13;6.47;;;;;;;;;;3595992;39;20058;-49
2021/07/13 08:01:18;;;;;;;14.48;8.25;;;;;;;;;;3596929;40;20048;-53
2021/07/13 08:03:45;;;;;;;1.92;0.98;;;;;;;;;;3597859;39;20064;-54
2021/07/13 08:06:13;;;;;;;1.05;0.50;;;;;;;;;;3581245;39;20102;-53
2021/07/13 08:08:41;;;;;;;1.30;0.40;;;;;;;;;;3587372;40;20420;-52
2021/07/13 08:11:08;;;;;;;0.65;0.60;;;;;;;;;;3587627;40;20093;-50
2021/07/13 08:13:39;;;;;;;1.30;0.60;;;;;;;;;;3587703;40;20040;-52
2021/07/13 08:16:07;;;;;;;1.35;0.50;;;;;;;;;;3587352;40;20060;-47
2021/07/13 08:18:34;;;;;;;0.65;0.40;;;;;;;;;;3587706;40;20283;-52
2021/07/13 08:21:04;;;;;;;0.95;0.40;;;;;;;;;;3587769;40;20044;-53
2021/07/13 08:23:33;;;;;;;1.25;0.50;;;;;;;;;;3587640;40;20056;-53
2021/07/13 08:26:01;;;;;;;1.63;0.80;;;;;;;;;;3587520;40;20053;-53
2021/07/13 08:28:29;;;;;;;34.92;24.38;;;;;;;;;;3587482;40;20043;-54
2021/07/13 08:30:56;;;;;;;17.80;11.77;;;;;;;;;;3588231;40;20060;-50
2021/07/13 08:33:24;;;;;;;2.40;1.13;;;;;;;;;;3587063;40;20037;-46
2021/07/13 08:35:51;;;;;;;1.90;0.40;;;;;;;;;;3587324;40;20048;-51
2021/07/13 08:38:18;;;;;;;0.98;0.45;;;;;;;;;;3587513;40;20153;-53
2021/07/13 08:40:47;;;;;;;0.80;0.57;;;;;;;;;;3587439;40;20052;-51
2021/07/13 08:43:14;;;;;;;0.93;0.50;;;;;;;;;;3587125;40;20073;-51
2021/07/13 08:45:43;;;;;;;0.80;0.63;;;;;;;;;;3587476;40;20040;-52
2021/07/13 08:48:12;;;;;;;0.93;0.60;;;;;;;;;;3586786;40;20044;-53
2021/07/13 08:50:40;;;;;;;1.13;0.70;;;;;;;;;;3587236;40;20055;-51
2021/07/13 08:53:07;;;;;;;1.52;0.88;;;;;;;;;;3587489;40;20080;-45
2021/07/13 08:55:35;;;;;;;0.68;0.47;;;;;;;;;;3587001;40;20063;-55
2021/07/13 08:58:03;;;;;;;53.08;37.25;;;;;;;;;;3587482;40;20461;-50
2021/07/13 09:00:31;;;;;;;4.80;3.15;;;;;;;;;;3587060;40;20044;-55
2021/07/13 09:03:14;;;;;;;4.25;0.50;;;;;;;;;;3585820;40;20514;-50
2021/07/13 09:05:53;;;;;;;1.83;0.30;;;;;;;;;;3586532;40;20415;-52
2021/07/13 09:08:26;;;;;;;3.30;0.70;;;;;;;;;;3586594;40;20081;-49
2021/07/13 09:11:04;;;;;;;1.27;0.40;;;;;;;;;;3586678;40;20053;-51
2021/07/13 09:13:36;;;;;;;1.50;0.70;;;;;;;;;;3587306;40;20392;-53
2021/07/13 09:16:08;;;;;;;1.27;0.57;;;;;;;;;;3587013;40;20094;-52
2021/07/13 09:18:57;;;;;;;2.25;0.57;;;;;;;;;;3587551;40;20433;-50
2021/07/13 09:21:33;;;;;;;2.78;0.50;;;;;;;;;;3586860;40;20100;-55
2021/07/13 09:24:08;;;;;;;1.02;0.55;;;;;;;;;;3587286;40;20047;-52
2021/07/13 09:26:40;;;;;;;1.48;0.70;;;;;;;;;;3587285;40;20045;-54
2021/07/13 09:29:25;;;;;;;15.55;9.57;;;;;;;;;;3587123;40;20121;-53
2021/07/13 09:31:53;;;;;;;2.70;1.33;;;;;;;;;;3587084;40;20084;-53
2021/07/13 09:34:21;;;;;;;1.58;0.73;;;;;;;;;;3587326;40;20137;-50
2021/07/13 09:36:52;;;;;;;1.52;0.75;;;;;;;;;;3586801;40;20094;-50
2021/07/13 09:39:22;;;;;;;;;;;;;;;;;;3587652;40;20064;-50
2021/07/13 09:41:54;;;;;;;0.63;0.40;;;;;;;;;;3585817;40;19956;-50
2021/07/13 09:44:23;;;;;;;1.20;0.40;;;;;;;;;;3586792;40;20041;-52
2021/07/13 09:46:51;;;;;;;0.50;0.50;;;;;;;;;;3587603;40;20286;-49
2021/07/13 09:49:24;;;;;;;1.25;0.50;;;;;;;;;;3587044;40;20040;-50
2021/07/13 09:51:58;;;;;;;1.95;0.40;;;;;;;;;;3587029;40;20053;-50
2021/07/13 09:54:28;;;;;;;0.82;0.40;;;;;;;;;;3586885;40;20052;-50
2021/07/13 09:56:57;;;;;;;1.30;0.40;;;;;;;;;;3586698;40;20052;-45
2021/07/13 09:59:25;;;;;;;0.70;0.50;;;;;;;;;;3586761;40;20142;-52
2021/07/13 10:01:52;;;;;;;3.47;0.60;;;;;;;;;;3587222;40;20056;-53
2021/07/13 10:04:21;;;;;;;1.13;0.60;;;;;;;;;;3585808;40;20081;-53
2021/07/13 10:06:52;;;;;;;0.70;0.40;;;;;;;;;;3585578;40;20056;-53
2021/07/13 10:09:22;;;;;;;0.52;0.45;;;;;;;;;;3587099;40;20064;-56
2021/07/13 10:11:49;;;;;;;0.75;0.47;;;;;;;;;;3587065;40;20051;-50
2021/07/13 10:14:17;;;;;;;2.70;0.40;;;;;;;;;;3586718;40;20041;-51
2021/07/13 10:16:46;;;;;;;6.00;2.80;;;;;;;;;;3586766;40;20045;-52
2021/07/13 10:19:14;;;;;;;5.97;2.85;;;;;;;;;;3586923;40;20044;-51
2021/07/13 10:21:46;;;;;;;0.93;0.60;;;;;;;;;;3586557;40;20051;-50
2021/07/13 10:24:14;;;;;;;1.95;0.32;;;;;;;;;;3586773;40;20052;-54
2021/07/13 10:26:52;;;;;;;0.80;0.40;;;;;;;;;;3586667;40;20052;-48
2021/07/13 10:29:33;;;;;;;1.25;0.50;;;;;;;;;;3586691;40;20056;-52
2021/07/13 10:32:06;;;;;;;2.72;0.60;;;;;;;;;;3586781;40;20087;-47
2021/07/13 10:35:04;;;;;;;0.47;0.40;;;;;;;;;;3586709;40;20092;-51
2021/07/13 10:37:37;;;;;;;1.10;0.40;;;;;;;;;;3585296;40;20389;-48
2021/07/13 10:40:11;;;;;;;1.23;0.45;;;;;;;;;;3586970;40;20524;-50
2021/07/13 10:42:41;;;;;;;0.77;0.40;;;;;;;;;;3586716;40;20048;-51
2021/07/13 10:45:17;;;;;;;1.05;0.40;;;;;;;;;;3586808;40;20507;-52
2021/07/13 10:48:00;;;;;;;4.03;0.50;;;;;;;;;;3586641;40;20044;-50
2021/07/13 10:50:27;;;;;;;;;;;;;;;;;;3587429;40;20048;-50
2021/07/13 10:53:05;;;;;;;0.45;0.30;;;;;;;;;;3586751;40;20033;-53
2021/07/13 10:55:37;;;;;;;0.90;0.40;;;;;;;;;;3586782;40;20044;-55
2021/07/13 10:58:10;;;;;;;1.05;0.40;;;;;;;;;;3586518;40;20048;-50
2021/07/13 11:00:47;;;;;;;71.22;41.03;;;;;;;;;;3586604;40;20044;-49
2021/07/13 11:06:08;;;;;;;0.70;0.60;;;;;;;;;;3586746;40;20048;-51
2021/07/13 11:08:39;;;;;;;0.43;0.40;;;;;;;;;;3584888;40;20044;-47
2021/07/13 11:11:06;;;;;;;2.00;0.40;;;;;;;;;;3587049;40;20048;-50
2021/07/13 11:13:34;;;;;;;1.15;0.60;;;;;;;;;;3586568;40;20137;-46
2021/07/13 11:16:03;;;;;;;2.28;0.50;;;;;;;;;;3586727;40;20130;-52
2021/07/13 11:18:35;;;;;;;1.38;0.57;;;;;;;;;;3586501;40;20057;-53
2021/07/13 11:21:20;;;;;;;0.93;0.40;;;;;;;;;;3586311;40;20053;-48
2021/07/13 11:23:50;;;;;;;1.15;0.60;;;;;;;;;;3586500;40;20100;-48
2021/07/13 11:26:19;;;;;;;3.38;0.38;;;;;;;;;;3586178;40;20033;-50
2021/07/13 11:28:54;;;;;;;0.70;0.40;;;;;;;;;;3586423;40;20048;-56
2021/07/13 11:31:29;;;;;;;1.15;0.60;;;;;;;;;;3586345;40;20065;-53
2021/07/13 11:34:08;;;;;;;3.80;0.50;;;;;;;;;;3587521;40;20045;-52
2021/07/13 11:36:40;;;;;;;0.45;0.45;;;;;;;;;;3587636;40;20044;-46
2021/07/13 11:39:32;;;;;;;13.25;8.95;;;;;;;;;;3587785;40;20074;-50
2021/07/13 11:42:10;;;;;;;;;;;;;;;;;;3588298;40;20056;-50
2021/07/13 11:44:40;;;;;;;1.63;0.60;;;;;;;;;;3587681;40;19948;-53
2021/07/13 11:47:12;;;;;;;1.40;0.60;;;;;;;;;;3586403;40;20036;-51
2021/07/13 11:49:40;;;;;;;0.80;0.52;;;;;;;;;;3587897;40;20083;-51
2021/07/13 11:52:12;;;;;;;0.90;0.55;;;;;;;;;;3587587;40;20052;-48
2021/07/13 11:54:41;;;;;;;;;;;;;;;;;;3588185;40;20063;-51
2021/07/13 11:57:18;;;;;;;1.05;0.47;;;;;;;;;;3587706;40;19933;-47
2021/07/13 11:59:46;;;;;;;3.05;0.60;;;;;;;;;;3587508;40;20044;-56
2021/07/13 12:02:14;;;;;;;1.15;0.50;;;;;;;;;;3587780;40;20051;-52
2021/07/13 12:04:44;;;;;;;0.50;0.40;;;;;;;;;;3587555;40;20052;-52
2021/07/13 12:07:11;;;;;;;1.38;0.60;;;;;;;;;;3587300;40;20060;-48
2021/07/13 12:09:40;;;;;;;1.05;0.57;;;;;;;;;;3587641;40;20045;-50
2021/07/13 12:12:11;;;;;;;1.30;0.50;;;;;;;;;;3587982;40;20049;-53
2021/07/13 12:14:59;;;;;;;0.77;0.60;;;;;;;;;;3587439;40;20060;-48
2021/07/13 12:17:27;;;;;;;1.00;0.60;;;;;;;;;;3587686;40;20085;-48
2021/07/13 12:19:55;;;;;;;16.63;10.90;;;;;;;;;;3587361;40;20071;-51
2021/07/13 12:22:24;;;;;;;19.52;13.35;;;;;;;;;;3586461;40;20044;-49
2021/07/13 12:25:00;;;;;;;1.42;0.77;;;;;;;;;;3587354;40;20055;-53
2021/07/13 12:27:31;;;;;;;1.38;0.60;;;;;;;;;;3587699;40;20045;-54
2021/07/13 12:30:08;;;;;;;1.63;0.70;;;;;;;;;;3587824;40;20048;-48
2021/07/13 12:32:37;;;;;;;1.55;0.70;;;;;;;;;;3587373;40;20137;-49
2021/07/13 12:35:11;;;;;;;2.55;0.80;;;;;;;;;;3587408;40;20377;-50
2021/07/13 12:37:39;;;;;;;2.35;0.60;;;;;;;;;;3587599;40;20052;-47
2021/07/13 12:40:11;;;;;;;0.77;0.50;;;;;;;;;;3587635;40;20085;-52
2021/07/13 12:42:46;;;;;;;0.60;0.50;;;;;;;;;;3587481;40;20055;-51
2021/07/13 12:45:20;;;;;;;0.90;0.60;;;;;;;;;;3586526;40;20047;-53
2021/07/13 12:47:49;;;;;;;1.45;0.80;;;;;;;;;;3587127;40;20064;-55
2021/07/13 12:50:31;;;;;;;0.80;0.70;;;;;;;;;;3586628;40;20084;-50
2021/07/13 12:53:05;;;;;;;2.60;0.55;;;;;;;;;;3587412;40;20151;-50
2021/07/13 12:55:45;;;;;;;1.30;0.80;;;;;;;;;;3587152;40;20092;-49
2021/07/13 12:58:24;;;;;;;3.13;0.55;;;;;;;;;;3587367;40;20499;-51
2021/07/13 13:00:56;;;;;;;0.80;0.50;;;;;;;;;;3587480;40;20041;-52
2021/07/13 13:03:34;;;;;;;1.30;0.68;;;;;;;;;;3587028;40;20052;-50
2021/07/13 13:06:11;;;;;;;2.15;0.70;;;;;;;;;;3587156;40;20056;-53
2021/07/13 13:08:40;;;;;;;2.20;0.60;;;;;;;;;;3587216;40;20105;-49
2021/07/13 13:11:19;;;;;;;1.88;0.52;;;;;;;;;;3587060;40;20070;-49
2021/07/13 13:13:49;;;;;;;3.10;0.55;;;;;;;;;;3587088;40;20056;-50
2021/07/13 13:16:21;;;;;;;1.98;0.70;;;;;;;;;;3587166;40;20053;-47
2021/07/13 13:18:50;;;;;;;1.15;0.70;;;;;;;;;;3587293;40;20322;-50
2021/07/13 13:21:17;;;;;;;1.20;0.73;;;;;;;;;;3586893;40;20052;-50
2021/07/13 13:23:46;;;;;;;9.98;5.88;;;;;;;;;;3587126;40;20041;-50
2021/07/13 13:26:13;;;;;;;1.88;1.00;;;;;;;;;;3587412;40;20055;-52
2021/07/13 13:28:41;;;;;;;9.43;0.80;;;;;;;;;;3587095;40;20064;-44
2021/07/13 13:31:08;;;;;;;0.50;0.40;;;;;;;;;;3587194;40;20057;-46
2021/07/13 13:33:38;;;;;;;1.17;0.60;;;;;;;;;;3586833;40;20052;-50
2021/07/13 13:36:13;;;;;;;1.10;0.63;;;;;;;;;;3587307;40;20048;-52
2021/07/13 13:38:44;;;;;;;1.88;0.70;;;;;;;;;;3586952;40;20048;-51
2021/07/13 13:41:13;;;;;;;1.85;0.70;;;;;;;;;;3585001;40;20081;-49
2021/07/13 13:43:42;;;;;;;1.60;0.73;;;;;;;;;;3586845;40;20056;-53
2021/07/13 13:46:10;;;;;;;1.45;0.70;;;;;;;;;;3587102;40;20052;-53
2021/07/13 13:48:38;;;;;;;0.90;0.70;;;;;;;;;;3586010;40;20445;-51
2021/07/13 13:51:06;;;;;;;2.42;0.65;;;;;;;;;;3587187;40;20097;-51
2021/07/13 13:53:38;;;;;;;0.98;0.60;;;;;;;;;;3587004;40;20044;-52
2021/07/13 13:56:09;;;;;;;1.65;0.55;;;;;;;;;;3586625;40;20040;-48
2021/07/13 13:58:37;;;;;;;1.48;0.70;;;;;;;;;;3587036;40;20418;-54
2021/07/13 14:01:07;;;;;;;0.90;0.80;;;;;;;;;;3587131;40;20048;-55
2021/07/13 14:03:35;;;;;;;1.67;0.75;;;;;;;;;;3585630;40;20037;-53
2021/07/13 14:06:04;;;;;;;301.35;225.02;;;;;;;;;;3586960;40;20052;-48
2021/07/13 14:08:33;;;;;;;5.82;2.95;;;;;;;;;;3587035;40;20079;-53
2021/07/13 14:11:02;;;;;;;2.05;0.93;;;;;;;;;;3586860;40;20052;-49
2021/07/13 14:13:30;;;;;;;3.42;0.73;;;;;;;;;;3586968;40;20056;-51
2021/07/13 14:16:00;;;;;;;1.15;0.60;;;;;;;;;;3585709;40;20091;-53
2021/07/13 14:18:28;;;;;;;1.35;0.73;;;;;;;;;;3587149;40;20051;-50
2021/07/13 14:20:57;;;;;;;1.95;0.80;;;;;;;;;;3585609;40;20322;-53
2021/07/13 14:23:26;;;;;;;1.17;0.70;;;;;;;;;;3586922;40;20056;-51
2021/07/13 14:25:54;;;;;;;1.42;0.68;;;;;;;;;;3586703;40;20040;-50
2021/07/13 14:28:21;;;;;;;0.80;0.65;;;;;;;;;;3586616;40;20056;-50
2021/07/13 14:30:49;;;;;;;0.90;0.80;;;;;;;;;;3586755;40;20052;-54
2021/07/13 14:33:20;;;;;;;1.52;0.90;;;;;;;;;;3586455;40;20280;-50
2021/07/13 14:35:47;;;;;;;1.10;0.70;;;;;;;;;;3586346;40;20357;-53
2021/07/13 14:38:14;;;;;;;1.00;0.70;;;;;;;;;;3586745;40;20098;-49
2021/07/13 14:40:42;;;;;;;0.73;0.70;;;;;;;;;;3586906;40;20048;-54
2021/07/13 14:43:11;;;;;;;1.23;0.80;;;;;;;;;;3586826;40;20040;-50
2021/07/13 14:45:46;;;;;;;1.45;0.80;;;;;;;;;;3586443;40;20040;-47
2021/07/13 14:48:14;;;;;;;1.73;0.90;;;;;;;;;;3586520;40;20049;-52
2021/07/13 14:50:46;;;;;;;2.40;0.90;;;;;;;;;;3586808;40;20044;-52
2021/07/13 14:53:15;;;;;;;1.58;0.70;;;;;;;;;;3586527;40;20048;-53
2021/07/13 14:55:49;;;;;;;1.17;0.60;;;;;;;;;;3586541;40;20154;-54
2021/07/13 14:58:16;;;;;;;0.93;0.60;;;;;;;;;;3586430;40;20041;-46
2021/07/13 15:00:45;;;;;;;1.80;0.70;;;;;;;;;;3586466;40;20045;-54
2021/07/13 15:03:14;;;;;;;109.93;82.95;;;;;;;;;;3586536;40;20068;-51